sensor_id;sensor_type;location;lat;lon;timestamp;P1;durP1;ratioP1;P2;durP2;ratioP2
57561;SDS011;43397;51.530;5.974;2023-07-22T00:00:46;20.55;;;13.13;;
57561;SDS011;43397;51.530;5.974;2023-07-22T00:03:11;20.63;;;13.30;;
57561;SDS011;43397;51.530;5.974;2023-07-22T00:05:37;21.67;;;14.30;;
57561;SDS011;43397;51.530;5.974;2023-07-22T00:08:03;20.67;;;13.27;;
57561;SDS011;43397;51.530;5.974;2023-07-22T00:10:29;19.60;;;12.63;;
57561;SDS011;43397;51.530;5.974;2023-07-22T00:12:56;21.67;;;13.18;;
57561;SDS011;43397;51.530;5.974;2023-07-22T00:15:22;20.80;;;13.82;;
57561;SDS011;43397;51.530;5.974;2023-07-22T00:17:47;19.42;;;13.80;;
57561;SDS011;43397;51.530;5.974;2023-07-22T00:20:13;20.90;;;12.70;;
57561;SDS011;43397;51.530;5.974;2023-07-22T00:22:39;19.75;;;13.07;;
57561;SDS011;43397;51.530;5.974;2023-07-22T00:25:05;19.02;;;12.57;;
57561;SDS011;43397;51.530;5.974;2023-07-22T00:27:32;18.40;;;11.45;;
57561;SDS011;43397;51.530;5.974;2023-07-22T00:29:59;19.63;;;12.23;;
57561;SDS011;43397;51.530;5.974;2023-07-22T00:32:25;20.10;;;12.57;;
57561;SDS011;43397;51.530;5.974;2023-07-22T00:34:50;21.38;;;13.35;;
57561;SDS011;43397;51.530;5.974;2023-07-22T00:37:16;18.65;;;12.77;;
57561;SDS011;43397;51.530;5.974;2023-07-22T00:39:42;18.83;;;12.82;;
57561;SDS011;43397;51.530;5.974;2023-07-22T00:42:07;18.58;;;12.70;;
57561;SDS011;43397;51.530;5.974;2023-07-22T00:44:33;20.15;;;13.52;;
57561;SDS011;43397;51.530;5.974;2023-07-22T00:47:00;18.85;;;12.65;;
57561;SDS011;43397;51.530;5.974;2023-07-22T00:49:26;17.35;;;12.82;;
57561;SDS011;43397;51.530;5.974;2023-07-22T00:51:55;18.50;;;12.73;;
57561;SDS011;43397;51.530;5.974;2023-07-22T00:54:25;20.75;;;13.00;;
57561;SDS011;43397;51.530;5.974;2023-07-22T00:56:50;21.15;;;14.23;;
57561;SDS011;43397;51.530;5.974;2023-07-22T00:59:17;21.83;;;13.40;;
57561;SDS011;43397;51.530;5.974;2023-07-22T01:01:42;22.73;;;13.63;;
57561;SDS011;43397;51.530;5.974;2023-07-22T01:04:09;20.75;;;14.02;;
57561;SDS011;43397;51.530;5.974;2023-07-22T01:06:35;22.35;;;13.85;;
57561;SDS011;43397;51.530;5.974;2023-07-22T01:09:01;25.60;;;15.38;;
57561;SDS011;43397;51.530;5.974;2023-07-22T01:11:27;22.30;;;14.25;;
57561;SDS011;43397;51.530;5.974;2023-07-22T01:13:53;21.23;;;13.80;;
57561;SDS011;43397;51.530;5.974;2023-07-22T01:16:18;20.95;;;13.75;;
57561;SDS011;43397;51.530;5.974;2023-07-22T01:18:44;21.50;;;14.00;;
57561;SDS011;43397;51.530;5.974;2023-07-22T01:21:11;23.48;;;13.25;;
57561;SDS011;43397;51.530;5.974;2023-07-22T01:23:38;22.15;;;13.80;;
57561;SDS011;43397;51.530;5.974;2023-07-22T01:26:04;24.15;;;14.73;;
57561;SDS011;43397;51.530;5.974;2023-07-22T01:28:30;23.73;;;13.80;;
57561;SDS011;43397;51.530;5.974;2023-07-22T01:30:59;23.77;;;14.85;;
57561;SDS011;43397;51.530;5.974;2023-07-22T01:33:25;24.52;;;14.02;;
57561;SDS011;43397;51.530;5.974;2023-07-22T01:35:51;26.40;;;15.88;;
57561;SDS011;43397;51.530;5.974;2023-07-22T01:38:16;25.98;;;14.98;;
57561;SDS011;43397;51.530;5.974;2023-07-22T01:40:43;24.33;;;14.05;;
57561;SDS011;43397;51.530;5.974;2023-07-22T01:43:09;21.60;;;13.77;;
57561;SDS011;43397;51.530;5.974;2023-07-22T01:45:34;23.77;;;15.55;;
57561;SDS011;43397;51.530;5.974;2023-07-22T01:48:00;22.05;;;14.65;;
57561;SDS011;43397;51.530;5.974;2023-07-22T01:50:26;23.73;;;15.07;;
57561;SDS011;43397;51.530;5.974;2023-07-22T01:52:51;24.50;;;15.55;;
57561;SDS011;43397;51.530;5.974;2023-07-22T01:55:17;20.52;;;13.32;;
57561;SDS011;43397;51.530;5.974;2023-07-22T01:57:44;25.42;;;15.90;;
57561;SDS011;43397;51.530;5.974;2023-07-22T02:00:10;19.83;;;13.70;;
57561;SDS011;43397;51.530;5.974;2023-07-22T02:02:36;22.23;;;15.50;;
57561;SDS011;43397;51.530;5.974;2023-07-22T02:05:02;23.38;;;14.63;;
57561;SDS011;43397;51.530;5.974;2023-07-22T02:07:28;21.65;;;13.27;;
57561;SDS011;43397;51.530;5.974;2023-07-22T02:09:54;23.33;;;14.30;;
57561;SDS011;43397;51.530;5.974;2023-07-22T02:12:20;23.02;;;13.52;;
57561;SDS011;43397;51.530;5.974;2023-07-22T02:14:47;23.42;;;13.63;;
57561;SDS011;43397;51.530;5.974;2023-07-22T02:17:12;24.35;;;14.43;;
57561;SDS011;43397;51.530;5.974;2023-07-22T02:19:38;19.77;;;13.57;;
57561;SDS011;43397;51.530;5.974;2023-07-22T02:22:04;21.10;;;13.18;;
57561;SDS011;43397;51.530;5.974;2023-07-22T02:24:30;21.73;;;13.75;;
57561;SDS011;43397;51.530;5.974;2023-07-22T02:26:55;19.38;;;13.80;;
57561;SDS011;43397;51.530;5.974;2023-07-22T02:29:21;20.10;;;13.10;;
57561;SDS011;43397;51.530;5.974;2023-07-22T02:31:48;21.98;;;14.07;;
57561;SDS011;43397;51.530;5.974;2023-07-22T02:34:14;22.50;;;13.30;;
57561;SDS011;43397;51.530;5.974;2023-07-22T02:36:39;20.10;;;13.02;;
57561;SDS011;43397;51.530;5.974;2023-07-22T02:39:05;18.90;;;11.95;;
57561;SDS011;43397;51.530;5.974;2023-07-22T02:41:31;23.23;;;13.77;;
57561;SDS011;43397;51.530;5.974;2023-07-22T02:43:56;25.08;;;13.38;;
57561;SDS011;43397;51.530;5.974;2023-07-22T02:46:22;20.60;;;13.00;;
57561;SDS011;43397;51.530;5.974;2023-07-22T02:48:49;22.88;;;13.80;;
57561;SDS011;43397;51.530;5.974;2023-07-22T02:51:15;20.90;;;13.43;;
57561;SDS011;43397;51.530;5.974;2023-07-22T02:53:40;21.45;;;12.93;;
57561;SDS011;43397;51.530;5.974;2023-07-22T02:56:06;21.73;;;13.13;;
57561;SDS011;43397;51.530;5.974;2023-07-22T02:58:32;20.38;;;13.15;;
57561;SDS011;43397;51.530;5.974;2023-07-22T03:00:58;20.50;;;12.38;;
57561;SDS011;43397;51.530;5.974;2023-07-22T03:03:24;22.15;;;14.38;;
57561;SDS011;43397;51.530;5.974;2023-07-22T03:05:51;19.08;;;12.88;;
57561;SDS011;43397;51.530;5.974;2023-07-22T03:08:17;20.80;;;14.07;;
57561;SDS011;43397;51.530;5.974;2023-07-22T03:10:43;20.55;;;13.32;;
57561;SDS011;43397;51.530;5.974;2023-07-22T03:13:09;21.10;;;11.88;;
57561;SDS011;43397;51.530;5.974;2023-07-22T03:15:35;19.35;;;12.20;;
57561;SDS011;43397;51.530;5.974;2023-07-22T03:18:00;22.58;;;13.32;;
57561;SDS011;43397;51.530;5.974;2023-07-22T03:20:26;19.45;;;13.25;;
57561;SDS011;43397;51.530;5.974;2023-07-22T03:22:53;21.85;;;13.65;;
57561;SDS011;43397;51.530;5.974;2023-07-22T03:25:19;20.20;;;12.85;;
57561;SDS011;43397;51.530;5.974;2023-07-22T03:27:45;21.50;;;13.40;;
57561;SDS011;43397;51.530;5.974;2023-07-22T03:30:11;21.85;;;13.02;;
57561;SDS011;43397;51.530;5.974;2023-07-22T03:32:38;22.38;;;13.05;;
57561;SDS011;43397;51.530;5.974;2023-07-22T03:35:04;20.92;;;12.65;;
57561;SDS011;43397;51.530;5.974;2023-07-22T03:37:30;20.15;;;13.25;;
57561;SDS011;43397;51.530;5.974;2023-07-22T03:39:57;18.80;;;12.73;;
57561;SDS011;43397;51.530;5.974;2023-07-22T03:42:23;22.77;;;13.10;;
57561;SDS011;43397;51.530;5.974;2023-07-22T03:44:49;21.58;;;13.57;;
57561;SDS011;43397;51.530;5.974;2023-07-22T03:47:14;21.63;;;13.07;;
57561;SDS011;43397;51.530;5.974;2023-07-22T03:49:40;20.30;;;12.15;;
57561;SDS011;43397;51.530;5.974;2023-07-22T03:52:06;23.58;;;13.75;;
57561;SDS011;43397;51.530;5.974;2023-07-22T03:54:32;20.55;;;12.20;;
57561;SDS011;43397;51.530;5.974;2023-07-22T03:56:59;20.20;;;13.65;;
57561;SDS011;43397;51.530;5.974;2023-07-22T03:59:25;22.30;;;13.38;;
57561;SDS011;43397;51.530;5.974;2023-07-22T04:01:51;21.38;;;12.82;;
57561;SDS011;43397;51.530;5.974;2023-07-22T04:04:16;21.83;;;13.52;;
57561;SDS011;43397;51.530;5.974;2023-07-22T04:06:42;20.15;;;13.15;;
57561;SDS011;43397;51.530;5.974;2023-07-22T04:09:07;23.25;;;13.27;;
57561;SDS011;43397;51.530;5.974;2023-07-22T04:11:33;23.02;;;14.15;;
57561;SDS011;43397;51.530;5.974;2023-07-22T04:14:00;26.40;;;14.57;;
57561;SDS011;43397;51.530;5.974;2023-07-22T04:16:26;25.92;;;15.52;;
57561;SDS011;43397;51.530;5.974;2023-07-22T04:18:51;22.80;;;14.45;;
57561;SDS011;43397;51.530;5.974;2023-07-22T04:21:17;23.42;;;14.07;;
57561;SDS011;43397;51.530;5.974;2023-07-22T04:23:43;25.75;;;14.63;;
57561;SDS011;43397;51.530;5.974;2023-07-22T04:26:09;25.27;;;15.20;;
57561;SDS011;43397;51.530;5.974;2023-07-22T04:28:35;24.38;;;14.30;;
57561;SDS011;43397;51.530;5.974;2023-07-22T04:31:02;21.42;;;12.80;;
57561;SDS011;43397;51.530;5.974;2023-07-22T04:33:28;26.60;;;14.90;;
57561;SDS011;43397;51.530;5.974;2023-07-22T04:35:55;26.05;;;13.70;;
57561;SDS011;43397;51.530;5.974;2023-07-22T04:38:21;23.25;;;13.35;;
57561;SDS011;43397;51.530;5.974;2023-07-22T04:40:47;23.25;;;14.23;;
57561;SDS011;43397;51.530;5.974;2023-07-22T04:43:13;23.20;;;13.52;;
57561;SDS011;43397;51.530;5.974;2023-07-22T04:45:38;24.52;;;13.57;;
57561;SDS011;43397;51.530;5.974;2023-07-22T04:48:05;23.20;;;13.48;;
57561;SDS011;43397;51.530;5.974;2023-07-22T04:50:31;24.08;;;14.68;;
57561;SDS011;43397;51.530;5.974;2023-07-22T04:52:57;24.85;;;15.57;;
57561;SDS011;43397;51.530;5.974;2023-07-22T04:55:23;23.92;;;15.75;;
57561;SDS011;43397;51.530;5.974;2023-07-22T04:57:48;25.38;;;15.45;;
57561;SDS011;43397;51.530;5.974;2023-07-22T05:00:14;27.20;;;14.35;;
57561;SDS011;43397;51.530;5.974;2023-07-22T05:02:40;21.98;;;13.20;;
57561;SDS011;43397;51.530;5.974;2023-07-22T05:05:08;25.30;;;13.75;;
57561;SDS011;43397;51.530;5.974;2023-07-22T05:07:33;22.27;;;14.32;;
57561;SDS011;43397;51.530;5.974;2023-07-22T05:09:59;21.27;;;13.52;;
57561;SDS011;43397;51.530;5.974;2023-07-22T05:12:25;19.70;;;13.25;;
57561;SDS011;43397;51.530;5.974;2023-07-22T05:14:50;19.52;;;13.52;;
57561;SDS011;43397;51.530;5.974;2023-07-22T05:17:16;19.58;;;13.40;;
57561;SDS011;43397;51.530;5.974;2023-07-22T05:19:42;19.42;;;12.88;;
57561;SDS011;43397;51.530;5.974;2023-07-22T05:22:09;19.90;;;12.82;;
57561;SDS011;43397;51.530;5.974;2023-07-22T05:24:34;22.02;;;13.63;;
57561;SDS011;43397;51.530;5.974;2023-07-22T05:27:00;19.60;;;12.70;;
57561;SDS011;43397;51.530;5.974;2023-07-22T05:29:26;19.52;;;12.57;;
57561;SDS011;43397;51.530;5.974;2023-07-22T05:31:51;19.73;;;12.57;;
57561;SDS011;43397;51.530;5.974;2023-07-22T05:34:17;17.83;;;12.15;;
57561;SDS011;43397;51.530;5.974;2023-07-22T05:36:42;21.08;;;13.23;;
57561;SDS011;43397;51.530;5.974;2023-07-22T05:39:10;19.20;;;12.18;;
57561;SDS011;43397;51.530;5.974;2023-07-22T05:41:35;18.02;;;11.85;;
57561;SDS011;43397;51.530;5.974;2023-07-22T05:44:01;19.48;;;11.13;;
57561;SDS011;43397;51.530;5.974;2023-07-22T05:46:27;18.58;;;12.50;;
57561;SDS011;43397;51.530;5.974;2023-07-22T05:48:52;19.17;;;12.13;;
57561;SDS011;43397;51.530;5.974;2023-07-22T05:51:18;19.70;;;13.07;;
57561;SDS011;43397;51.530;5.974;2023-07-22T05:53:44;19.50;;;13.07;;
57561;SDS011;43397;51.530;5.974;2023-07-22T05:56:11;16.88;;;12.45;;
57561;SDS011;43397;51.530;5.974;2023-07-22T05:58:37;20.40;;;11.90;;
57561;SDS011;43397;51.530;5.974;2023-07-22T06:01:02;20.15;;;12.43;;
57561;SDS011;43397;51.530;5.974;2023-07-22T06:03:28;20.20;;;12.45;;
57561;SDS011;43397;51.530;5.974;2023-07-22T06:05:54;21.15;;;13.32;;
57561;SDS011;43397;51.530;5.974;2023-07-22T06:08:19;20.20;;;14.52;;
57561;SDS011;43397;51.530;5.974;2023-07-22T06:10:45;18.85;;;13.10;;
57561;SDS011;43397;51.530;5.974;2023-07-22T06:13:12;21.50;;;13.30;;
57561;SDS011;43397;51.530;5.974;2023-07-22T06:15:38;21.52;;;12.88;;
57561;SDS011;43397;51.530;5.974;2023-07-22T06:18:03;18.58;;;12.93;;
57561;SDS011;43397;51.530;5.974;2023-07-22T06:20:29;18.17;;;12.75;;
57561;SDS011;43397;51.530;5.974;2023-07-22T06:22:55;20.27;;;13.18;;
57561;SDS011;43397;51.530;5.974;2023-07-22T06:25:23;20.63;;;13.45;;
57561;SDS011;43397;51.530;5.974;2023-07-22T06:27:49;18.23;;;12.73;;
57561;SDS011;43397;51.530;5.974;2023-07-22T06:30:15;22.00;;;13.38;;
57561;SDS011;43397;51.530;5.974;2023-07-22T06:32:41;18.30;;;11.30;;
57561;SDS011;43397;51.530;5.974;2023-07-22T06:35:07;18.88;;;13.07;;
57561;SDS011;43397;51.530;5.974;2023-07-22T06:37:33;19.95;;;12.20;;
57561;SDS011;43397;51.530;5.974;2023-07-22T06:39:59;18.83;;;12.90;;
57561;SDS011;43397;51.530;5.974;2023-07-22T06:42:25;20.52;;;13.45;;
57561;SDS011;43397;51.530;5.974;2023-07-22T06:44:50;21.23;;;13.02;;
57561;SDS011;43397;51.530;5.974;2023-07-22T06:47:17;21.48;;;13.85;;
57561;SDS011;43397;51.530;5.974;2023-07-22T06:49:43;20.33;;;13.60;;
57561;SDS011;43397;51.530;5.974;2023-07-22T06:52:09;18.08;;;13.25;;
57561;SDS011;43397;51.530;5.974;2023-07-22T06:54:34;17.20;;;12.20;;
57561;SDS011;43397;51.530;5.974;2023-07-22T06:57:00;19.23;;;10.93;;
57561;SDS011;43397;51.530;5.974;2023-07-22T06:59:26;18.00;;;12.10;;
57561;SDS011;43397;51.530;5.974;2023-07-22T07:01:52;23.23;;;13.40;;
57561;SDS011;43397;51.530;5.974;2023-07-22T07:04:19;19.20;;;12.77;;
57561;SDS011;43397;51.530;5.974;2023-07-22T07:06:45;20.35;;;13.10;;
57561;SDS011;43397;51.530;5.974;2023-07-22T07:09:10;22.67;;;13.50;;
57561;SDS011;43397;51.530;5.974;2023-07-22T07:11:36;21.48;;;13.15;;
57561;SDS011;43397;51.530;5.974;2023-07-22T07:14:02;20.55;;;13.10;;
57561;SDS011;43397;51.530;5.974;2023-07-22T07:16:28;24.48;;;14.60;;
57561;SDS011;43397;51.530;5.974;2023-07-22T07:18:55;23.52;;;14.50;;
57561;SDS011;43397;51.530;5.974;2023-07-22T07:21:22;20.55;;;12.90;;
57561;SDS011;43397;51.530;5.974;2023-07-22T07:23:48;23.45;;;13.95;;
57561;SDS011;43397;51.530;5.974;2023-07-22T07:26:14;22.05;;;14.05;;
57561;SDS011;43397;51.530;5.974;2023-07-22T07:28:40;20.17;;;13.45;;
57561;SDS011;43397;51.530;5.974;2023-07-22T07:31:07;17.52;;;13.25;;
57561;SDS011;43397;51.530;5.974;2023-07-22T07:33:33;22.10;;;14.60;;
57561;SDS011;43397;51.530;5.974;2023-07-22T07:35:58;22.30;;;13.02;;
57561;SDS011;43397;51.530;5.974;2023-07-22T07:38:26;20.38;;;13.90;;
57561;SDS011;43397;51.530;5.974;2023-07-22T07:40:52;22.52;;;13.43;;
57561;SDS011;43397;51.530;5.974;2023-07-22T07:43:18;19.38;;;12.55;;
57561;SDS011;43397;51.530;5.974;2023-07-22T07:45:43;22.73;;;13.43;;
57561;SDS011;43397;51.530;5.974;2023-07-22T07:48:09;20.30;;;12.13;;
57561;SDS011;43397;51.530;5.974;2023-07-22T07:50:35;18.13;;;11.95;;
57561;SDS011;43397;51.530;5.974;2023-07-22T07:53:00;20.25;;;13.07;;
57561;SDS011;43397;51.530;5.974;2023-07-22T07:55:27;19.35;;;12.80;;
57561;SDS011;43397;51.530;5.974;2023-07-22T07:57:53;20.85;;;13.60;;
57561;SDS011;43397;51.530;5.974;2023-07-22T08:00:19;22.98;;;13.15;;
57561;SDS011;43397;51.530;5.974;2023-07-22T08:02:44;20.13;;;11.60;;
57561;SDS011;43397;51.530;5.974;2023-07-22T08:05:10;19.30;;;12.13;;
57561;SDS011;43397;51.530;5.974;2023-07-22T08:07:36;21.45;;;12.70;;
57561;SDS011;43397;51.530;5.974;2023-07-22T08:10:01;20.35;;;11.45;;
57561;SDS011;43397;51.530;5.974;2023-07-22T08:12:29;18.63;;;11.02;;
57561;SDS011;43397;51.530;5.974;2023-07-22T08:14:55;19.65;;;11.80;;
57561;SDS011;43397;51.530;5.974;2023-07-22T08:17:21;20.73;;;11.63;;
57561;SDS011;43397;51.530;5.974;2023-07-22T08:19:47;18.17;;;11.70;;
57561;SDS011;43397;51.530;5.974;2023-07-22T08:22:13;17.63;;;11.23;;
57561;SDS011;43397;51.530;5.974;2023-07-22T08:24:38;22.55;;;11.93;;
57561;SDS011;43397;51.530;5.974;2023-07-22T08:27:04;19.65;;;12.00;;
57561;SDS011;43397;51.530;5.974;2023-07-22T08:29:31;20.23;;;10.75;;
57561;SDS011;43397;51.530;5.974;2023-07-22T08:31:57;18.98;;;11.10;;
57561;SDS011;43397;51.530;5.974;2023-07-22T08:34:23;18.92;;;10.60;;
57561;SDS011;43397;51.530;5.974;2023-07-22T08:36:48;18.55;;;11.10;;
57561;SDS011;43397;51.530;5.974;2023-07-22T08:39:14;16.15;;;10.65;;
57561;SDS011;43397;51.530;5.974;2023-07-22T08:41:40;19.35;;;9.75;;
57561;SDS011;43397;51.530;5.974;2023-07-22T08:44:07;19.85;;;10.50;;
57561;SDS011;43397;51.530;5.974;2023-07-22T08:46:36;17.50;;;10.07;;
57561;SDS011;43397;51.530;5.974;2023-07-22T08:49:04;20.20;;;10.52;;
57561;SDS011;43397;51.530;5.974;2023-07-22T08:51:32;16.60;;;10.43;;
57561;SDS011;43397;51.530;5.974;2023-07-22T08:53:59;17.80;;;10.57;;
57561;SDS011;43397;51.530;5.974;2023-07-22T08:56:25;16.15;;;9.93;;
57561;SDS011;43397;51.530;5.974;2023-07-22T08:58:51;16.88;;;9.48;;
57561;SDS011;43397;51.530;5.974;2023-07-22T09:01:17;18.92;;;11.02;;
57561;SDS011;43397;51.530;5.974;2023-07-22T09:03:44;15.30;;;9.45;;
57561;SDS011;43397;51.530;5.974;2023-07-22T09:06:12;15.35;;;10.20;;
57561;SDS011;43397;51.530;5.974;2023-07-22T09:08:38;15.63;;;10.18;;
57561;SDS011;43397;51.530;5.974;2023-07-22T09:11:04;13.68;;;9.77;;
57561;SDS011;43397;51.530;5.974;2023-07-22T09:13:30;16.80;;;9.80;;
57561;SDS011;43397;51.530;5.974;2023-07-22T09:15:57;15.07;;;9.27;;
57561;SDS011;43397;51.530;5.974;2023-07-22T09:18:23;13.23;;;8.15;;
57561;SDS011;43397;51.530;5.974;2023-07-22T09:20:50;13.15;;;8.35;;
57561;SDS011;43397;51.530;5.974;2023-07-22T09:23:15;13.93;;;7.68;;
57561;SDS011;43397;51.530;5.974;2023-07-22T09:25:42;12.82;;;8.07;;
57561;SDS011;43397;51.530;5.974;2023-07-22T09:28:08;16.17;;;8.60;;
57561;SDS011;43397;51.530;5.974;2023-07-22T09:30:35;15.88;;;8.70;;
57561;SDS011;43397;51.530;5.974;2023-07-22T09:33:02;13.43;;;8.35;;
57561;SDS011;43397;51.530;5.974;2023-07-22T09:35:31;12.80;;;6.90;;
57561;SDS011;43397;51.530;5.974;2023-07-22T09:38:11;12.98;;;7.82;;
57561;SDS011;43397;51.530;5.974;2023-07-22T09:40:36;11.45;;;7.00;;
57561;SDS011;43397;51.530;5.974;2023-07-22T09:43:05;12.00;;;6.75;;
57561;SDS011;43397;51.530;5.974;2023-07-22T09:45:31;10.82;;;6.63;;
57561;SDS011;43397;51.530;5.974;2023-07-22T09:47:57;11.13;;;7.45;;
57561;SDS011;43397;51.530;5.974;2023-07-22T09:50:23;11.45;;;6.45;;
57561;SDS011;43397;51.530;5.974;2023-07-22T09:52:51;10.18;;;5.90;;
57561;SDS011;43397;51.530;5.974;2023-07-22T09:55:20;9.73;;;5.60;;
57561;SDS011;43397;51.530;5.974;2023-07-22T09:57:47;10.98;;;6.07;;
57561;SDS011;43397;51.530;5.974;2023-07-22T10:00:15;11.88;;;6.13;;
57561;SDS011;43397;51.530;5.974;2023-07-22T10:02:42;8.73;;;5.45;;
57561;SDS011;43397;51.530;5.974;2023-07-22T10:05:09;8.80;;;4.80;;
57561;SDS011;43397;51.530;5.974;2023-07-22T10:07:37;10.93;;;4.82;;
57561;SDS011;43397;51.530;5.974;2023-07-22T10:10:08;9.20;;;5.43;;
57561;SDS011;43397;51.530;5.974;2023-07-22T10:12:37;7.60;;;4.45;;
57561;SDS011;43397;51.530;5.974;2023-07-22T10:15:04;8.85;;;4.68;;
57561;SDS011;43397;51.530;5.974;2023-07-22T10:17:31;8.38;;;4.47;;
57561;SDS011;43397;51.530;5.974;2023-07-22T10:19:57;7.93;;;4.32;;
57561;SDS011;43397;51.530;5.974;2023-07-22T10:22:24;7.55;;;4.38;;
57561;SDS011;43397;51.530;5.974;2023-07-22T10:24:50;7.43;;;4.60;;
57561;SDS011;43397;51.530;5.974;2023-07-22T10:27:18;7.80;;;4.38;;
57561;SDS011;43397;51.530;5.974;2023-07-22T10:29:45;8.63;;;4.68;;
57561;SDS011;43397;51.530;5.974;2023-07-22T10:32:11;6.90;;;4.38;;
57561;SDS011;43397;51.530;5.974;2023-07-22T10:34:37;9.38;;;5.47;;
57561;SDS011;43397;51.530;5.974;2023-07-22T10:37:02;9.77;;;4.65;;
57561;SDS011;43397;51.530;5.974;2023-07-22T10:39:28;7.28;;;4.28;;
57561;SDS011;43397;51.530;5.974;2023-07-22T10:42:00;9.00;;;5.32;;
57561;SDS011;43397;51.530;5.974;2023-07-22T10:44:27;10.25;;;5.43;;
57561;SDS011;43397;51.530;5.974;2023-07-22T10:46:57;12.82;;;5.32;;
57561;SDS011;43397;51.530;5.974;2023-07-22T10:49:27;11.77;;;5.82;;
57561;SDS011;43397;51.530;5.974;2023-07-22T10:52:07;10.60;;;5.03;;
57561;SDS011;43397;51.530;5.974;2023-07-22T10:54:35;10.88;;;5.53;;
57561;SDS011;43397;51.530;5.974;2023-07-22T10:57:22;8.77;;;5.25;;
57561;SDS011;43397;51.530;5.974;2023-07-22T10:59:49;9.30;;;5.40;;
57561;SDS011;43397;51.530;5.974;2023-07-22T11:02:23;8.77;;;5.13;;
57561;SDS011;43397;51.530;5.974;2023-07-22T11:04:49;8.88;;;4.75;;
57561;SDS011;43397;51.530;5.974;2023-07-22T11:07:15;7.95;;;4.50;;
57561;SDS011;43397;51.530;5.974;2023-07-22T11:09:54;10.32;;;5.20;;
57561;SDS011;43397;51.530;5.974;2023-07-22T11:12:20;8.82;;;4.75;;
57561;SDS011;43397;51.530;5.974;2023-07-22T11:14:47;8.38;;;4.13;;
57561;SDS011;43397;51.530;5.974;2023-07-22T11:17:14;7.85;;;4.03;;
57561;SDS011;43397;51.530;5.974;2023-07-22T11:19:42;7.57;;;3.28;;
57561;SDS011;43397;51.530;5.974;2023-07-22T11:22:08;7.03;;;3.35;;
57561;SDS011;43397;51.530;5.974;2023-07-22T11:24:34;5.25;;;2.88;;
57561;SDS011;43397;51.530;5.974;2023-07-22T11:27:01;5.80;;;2.95;;
57561;SDS011;43397;51.530;5.974;2023-07-22T11:29:28;6.85;;;3.40;;
57561;SDS011;43397;51.530;5.974;2023-07-22T11:31:53;7.38;;;2.83;;
57561;SDS011;43397;51.530;5.974;2023-07-22T11:34:20;6.57;;;2.75;;
57561;SDS011;43397;51.530;5.974;2023-07-22T11:36:48;6.78;;;2.97;;
57561;SDS011;43397;51.530;5.974;2023-07-22T11:39:14;5.82;;;2.80;;
57561;SDS011;43397;51.530;5.974;2023-07-22T11:41:42;5.30;;;2.70;;
57561;SDS011;43397;51.530;5.974;2023-07-22T11:44:09;7.68;;;2.63;;
57561;SDS011;43397;51.530;5.974;2023-07-22T11:46:36;5.25;;;2.35;;
57561;SDS011;43397;51.530;5.974;2023-07-22T11:49:11;5.00;;;2.03;;
57561;SDS011;43397;51.530;5.974;2023-07-22T11:51:37;6.35;;;2.20;;
57561;SDS011;43397;51.530;5.974;2023-07-22T11:54:09;4.93;;;2.50;;
57561;SDS011;43397;51.530;5.974;2023-07-22T11:56:35;5.43;;;1.98;;
57561;SDS011;43397;51.530;5.974;2023-07-22T11:59:01;5.75;;;2.50;;
57561;SDS011;43397;51.530;5.974;2023-07-22T12:01:29;6.43;;;2.60;;
57561;SDS011;43397;51.530;5.974;2023-07-22T12:03:57;5.90;;;2.50;;
57561;SDS011;43397;51.530;5.974;2023-07-22T12:06:24;6.18;;;2.58;;
57561;SDS011;43397;51.530;5.974;2023-07-22T12:08:51;5.03;;;2.25;;
57561;SDS011;43397;51.530;5.974;2023-07-22T12:11:19;5.40;;;2.40;;
57561;SDS011;43397;51.530;5.974;2023-07-22T12:13:45;4.78;;;1.77;;
57561;SDS011;43397;51.530;5.974;2023-07-22T12:16:11;6.15;;;2.40;;
57561;SDS011;43397;51.530;5.974;2023-07-22T12:18:40;5.40;;;2.30;;
57561;SDS011;43397;51.530;5.974;2023-07-22T12:21:07;4.57;;;2.17;;
57561;SDS011;43397;51.530;5.974;2023-07-22T12:23:33;5.32;;;2.30;;
57561;SDS011;43397;51.530;5.974;2023-07-22T12:25:59;5.20;;;2.22;;
57561;SDS011;43397;51.530;5.974;2023-07-22T12:28:26;6.15;;;2.25;;
57561;SDS011;43397;51.530;5.974;2023-07-22T12:30:51;7.32;;;2.65;;
57561;SDS011;43397;51.530;5.974;2023-07-22T12:33:17;5.15;;;1.98;;
57561;SDS011;43397;51.530;5.974;2023-07-22T12:35:43;6.20;;;2.10;;
57561;SDS011;43397;51.530;5.974;2023-07-22T12:38:08;5.28;;;2.00;;
57561;SDS011;43397;51.530;5.974;2023-07-22T12:40:34;5.43;;;2.17;;
57561;SDS011;43397;51.530;5.974;2023-07-22T12:43:00;6.53;;;2.28;;
57561;SDS011;43397;51.530;5.974;2023-07-22T12:45:27;5.93;;;2.08;;
57561;SDS011;43397;51.530;5.974;2023-07-22T12:47:52;6.93;;;2.20;;
57561;SDS011;43397;51.530;5.974;2023-07-22T12:50:18;6.43;;;2.33;;
57561;SDS011;43397;51.530;5.974;2023-07-22T12:52:43;5.53;;;2.00;;
57561;SDS011;43397;51.530;5.974;2023-07-22T12:55:09;5.05;;;2.30;;
57561;SDS011;43397;51.530;5.974;2023-07-22T12:57:35;5.90;;;2.83;;
57561;SDS011;43397;51.530;5.974;2023-07-22T13:00:00;6.40;;;2.40;;
57561;SDS011;43397;51.530;5.974;2023-07-22T13:02:28;6.50;;;2.78;;
57561;SDS011;43397;51.530;5.974;2023-07-22T13:04:53;4.20;;;2.40;;
57561;SDS011;43397;51.530;5.974;2023-07-22T13:07:34;6.68;;;2.67;;
57561;SDS011;43397;51.530;5.974;2023-07-22T13:10:00;5.68;;;2.30;;
57561;SDS011;43397;51.530;5.974;2023-07-22T13:12:25;4.68;;;2.10;;
57561;SDS011;43397;51.530;5.974;2023-07-22T13:14:51;5.50;;;2.33;;
57561;SDS011;43397;51.530;5.974;2023-07-22T13:17:17;5.00;;;2.47;;
57561;SDS011;43397;51.530;5.974;2023-07-22T13:19:44;5.45;;;1.98;;
57561;SDS011;43397;51.530;5.974;2023-07-22T13:22:10;6.32;;;2.63;;
57561;SDS011;43397;51.530;5.974;2023-07-22T13:24:35;4.97;;;2.15;;
57561;SDS011;43397;51.530;5.974;2023-07-22T13:27:01;5.40;;;2.33;;
57561;SDS011;43397;51.530;5.974;2023-07-22T13:29:27;6.68;;;2.70;;
57561;SDS011;43397;51.530;5.974;2023-07-22T13:31:52;5.35;;;2.50;;
57561;SDS011;43397;51.530;5.974;2023-07-22T13:34:18;6.30;;;2.40;;
57561;SDS011;43397;51.530;5.974;2023-07-22T13:36:45;4.85;;;2.40;;
57561;SDS011;43397;51.530;5.974;2023-07-22T13:39:11;5.53;;;2.30;;
57561;SDS011;43397;51.530;5.974;2023-07-22T13:41:37;6.10;;;2.00;;
57561;SDS011;43397;51.530;5.974;2023-07-22T13:44:03;7.90;;;2.10;;
57561;SDS011;43397;51.530;5.974;2023-07-22T13:46:28;7.93;;;2.40;;
57561;SDS011;43397;51.530;5.974;2023-07-22T13:48:54;4.60;;;2.40;;
57561;SDS011;43397;51.530;5.974;2023-07-22T13:51:20;4.50;;;2.00;;
57561;SDS011;43397;51.530;5.974;2023-07-22T13:53:47;6.32;;;2.20;;
57561;SDS011;43397;51.530;5.974;2023-07-22T13:56:12;6.05;;;2.58;;
57561;SDS011;43397;51.530;5.974;2023-07-22T13:58:38;4.60;;;2.03;;
57561;SDS011;43397;51.530;5.974;2023-07-22T14:01:04;5.03;;;2.10;;
57561;SDS011;43397;51.530;5.974;2023-07-22T14:03:29;5.78;;;2.28;;
57561;SDS011;43397;51.530;5.974;2023-07-22T14:05:55;5.65;;;2.42;;
57561;SDS011;43397;51.530;5.974;2023-07-22T14:08:21;5.60;;;1.90;;
57561;SDS011;43397;51.530;5.974;2023-07-22T14:10:48;5.40;;;2.17;;
57561;SDS011;43397;51.530;5.974;2023-07-22T14:13:13;5.43;;;2.25;;
57561;SDS011;43397;51.530;5.974;2023-07-22T14:15:39;6.10;;;1.90;;
57561;SDS011;43397;51.530;5.974;2023-07-22T14:18:05;4.70;;;1.80;;
57561;SDS011;43397;51.530;5.974;2023-07-22T14:20:30;3.80;;;1.90;;
57561;SDS011;43397;51.530;5.974;2023-07-22T14:22:56;4.90;;;1.90;;
57561;SDS011;43397;51.530;5.974;2023-07-22T14:25:22;4.88;;;2.10;;